Meteo Giornale » Osservazioni meteo Francia » Marce
ore: 21:30 - Osservazioni Meteo Marce
Lat. 47° 34' N Lon. 0° 18' E Alt. 60 metri s.l.m.
19 °C
Sereno
Temp. 24 Ore
17 °C
26 °C
Ovest
9.3 Km/h
Dew point 13 °C
Umidità 68 %
Visibilità 10 Km
Il sole sorge alle ore 07:16
Il sole tramonta alle ore 20:42
| Data e Ora | Cielo e Fenomeni | T °C | DP °C | Um. % | Pres. hPa | Vis. km | Vento km/h | |
|---|---|---|---|---|---|---|---|---|
| Oggi h: 21:30 | Sereno | 19 | 13 | 68 | 1021 | 10 | O 9.3 | |
| Oggi h: 21:00 | Sereno | 20 | 13 | 64 | 1020 | 10 | O 14.8 | |
| Oggi h: 20:30 | Sereno | 22 | 13 | 56 | 1020 | 10 | O 18.5 | |
| Oggi h: 20:00 | Sereno | 23 | 13 | 53 | 1020 | 10 | O 16.7 | |
| Oggi h: 19:30 | Sereno | 23 | 12 | 49 | 1019 | 10 | O/SO 20.3 | |
| Oggi h: 19:00 | Sereno | 24 | 13 | 50 | 1019 | 10 | O 20.3 | |
| Oggi h: 18:30 | Sereno | 24 | 12 | 47 | 1019 | 10 | O 20.3 | |
| Oggi h: 18:00 | Sereno | 25 | 12 | 44 | 1019 | 10 | O/SO 20.3 | |
| Oggi h: 17:30 | Sereno | 26 | 13 | 44 | 1019 | 10 | O 14.8 | |
| Oggi h: 17:00 | Sereno | 26 | 12 | 41 | 1019 | 10 | O/SO 27.8 | |
| Oggi h: 16:30 | Sereno | 26 | 13 | 44 | 1019 | 10 | O/SO 22.2 | |
| Oggi h: 16:00 | Molto Nuvoloso | 26 | 13 | 44 | 1019 | 10 | O 24 | |
| Oggi h: 15:30 | Molto Nuvoloso | 25 | 14 | 50 | 1019 | 10 | O/SO 25.9 | |
| Oggi h: 15:00 | Molto Nuvoloso | 24 | 13 | 50 | 1019 | 10 | O 18.5 | |
| Oggi h: 14:30 | Poco Nuvoloso | 24 | 13 | 50 | 1019 | 10 | O 22.2 | |
| Oggi h: 14:00 | Molto Nuvoloso | 23 | 13 | 53 | 1019 | 10 | O/NO 14.8 | |
| Oggi h: 13:30 | Coperto | 25 | 14 | 50 | 1019 | 10 | O/SO 27.8 | |
| Oggi h: 13:00 | Molto Nuvoloso | 24 | 15 | 57 | 1019 | 10 | O 24 | |
| Oggi h: 12:30 | Molto Nuvoloso | 21 | 14 | 64 | 1019 | 10 | O 24 | |
| Oggi h: 12:00 | Poco Nuvoloso | 22 | 15 | 64 | 1018 | 10 | O/SO 24 | |
| Oggi h: 11:30 | Molto Nuvoloso | 20 | 15 | 72 | 1018 | 10 | O 20.3 | |
| Oggi h: 11:00 | Molto Nuvoloso | 20 | 15 | 72 | 1018 | 10 | O 20.3 | |
| Oggi h: 10:30 | Poco Nuvoloso | 20 | 16 | 77 | 1018 | 10 | O/SO 22.2 | |
| Oggi h: 10:00 | Molto Nuvoloso | 19 | 16 | 82 | 1018 | 10 | O/SO 24 | |
| Oggi h: 09:30 | Coperto | 19 | 16 | 82 | 1017 | 10 | SO 14.8 | |
| Oggi h: 09:00 | Molto Nuvoloso | 18 | 16 | 88 | 1017 | 10 | SO 16.7 | |
| Oggi h: 08:30 | Nuvoloso | 18 | 16 | 88 | 1017 | 10 | SO 14.8 | |
| Oggi h: 08:00 | Poco Nuvoloso | 17 | 16 | 93 | 1016 | 10 | SO 13 | |
| Oggi h: 07:30 | Nuvoloso | 17 | 15 | 88 | 1016 | 10 | SO 14.8 | |
| Oggi h: 07:00 | Poco Nuvoloso | 17 | 15 | 88 | 1016 | 10 | O/SO 16.7 | |
| Oggi h: 06:30 | Coperto | 17 | 16 | 93 | 1016 | 10 | SO 16.7 | |
| Oggi h: 06:00 | Coperto | 17 | 16 | 93 | 1016 | 10 | SO 13 | |
| Oggi h: 05:30 | Poco Nuvoloso | 17 | 16 | 93 | 1016 | 10 | SO 16.7 | |
| Oggi h: 05:00 | Molto Nuvoloso | 17 | 16 | 93 | 1016 | 10 | SO 18.5 | |
| Oggi h: 04:30 | Sereno | 17 | 16 | 93 | 1015 | 10 | S/SO 16.7 | |
| Oggi h: 04:00 | Molto Nuvoloso | 17 | 16 | 93 | 1015 | 10 | S/SO 14.8 | |
| Oggi h: 03:30 | Sereno | 17 | 16 | 93 | 1015 | 10 | SO 16.7 | |
| Oggi h: 03:00 | Molto Nuvoloso | 18 | 15 | 82 | 1015 | 10 | SO 18.5 | |
| Oggi h: 02:30 | Molto Nuvoloso | 18 | 16 | 88 | 1015 | 10 | SO 16.7 | |
| Oggi h: 02:00 | Molto Nuvoloso | 18 | 16 | 88 | 1015 | 10 | SO 16.7 | |
| Oggi h: 01:30 | Molto Nuvoloso | 18 | 16 | 88 | 1015 | 10 | SO 20.3 | |
| Oggi h: 01:00 | Molto Nuvoloso | 18 | 16 | 88 | 1015 | 10 | SO 22.2 | |
| Oggi h: 00:30 | Molto Nuvoloso | 18 | 16 | 88 | 1015 | 10 | SO 22.2 | |
| Oggi h: 00:00 | Sereno | 19 | 16 | 82 | 1015 | 10 | SO 18.5 | |
| Ieri h: 23:30 | Sereno | 18 | 15 | 82 | 1015 | 10 | S/SO 16.7 | |
| Ieri h: 23:00 | Sereno | 18 | 15 | 82 | 1015 | 10 | S/SO 14.8 | |
| Ieri h: 22:30 | Sereno | 18 | 15 | 82 | 1015 | 10 | S/SO 11.1 | |
| Ieri h: 22:00 | Sereno | 19 | 15 | 77 | 1015 | 10 | SO 14.8 | |



